createdAt,value
2022-11-12T00:00:21.647Z,92615.69
2022-11-12T00:02:47.966Z,92619.16
2022-11-12T00:05:14.250Z,92621.59
2022-11-12T00:07:40.519Z,92618.22
2022-11-12T00:10:06.856Z,92616.81
2022-11-12T00:12:33.150Z,92616.50
2022-11-12T00:14:59.424Z,92620.78
2022-11-12T00:17:25.703Z,92628.44
2022-11-12T00:19:52.062Z,92623.41
2022-11-12T00:22:18.380Z,92618.84
2022-11-12T00:24:44.669Z,92617.72
2022-11-12T00:27:10.938Z,92619.34
2022-11-12T00:29:38.762Z,92621.59
2022-11-12T00:32:05.661Z,92618.22
2022-11-12T00:34:32.105Z,92618.72
2022-11-12T00:36:58.405Z,92612.75
2022-11-12T00:39:24.698Z,92616.00
2022-11-12T00:41:50.980Z,92613.84
2022-11-12T00:44:17.345Z,92613.84
2022-11-12T00:46:43.653Z,92614.25
2022-11-12T00:49:09.905Z,92618.75
2022-11-12T00:51:36.270Z,92620.06
2022-11-12T00:54:02.543Z,92616.63
2022-11-12T00:56:32.992Z,92619.34
2022-11-12T00:59:01.644Z,92619.03
2022-11-12T01:01:27.960Z,92619.66
2022-11-12T01:03:54.302Z,92619.84
2022-11-12T01:06:21.513Z,92617.94
2022-11-12T01:08:48.275Z,92617.72
2022-11-12T01:11:18.711Z,92619.47
2022-11-12T01:13:45.539Z,92616.28
2022-11-12T01:16:14.855Z,92613.66
2022-11-12T01:18:41.219Z,92618.22
2022-11-12T01:21:07.528Z,92612.03
2022-11-12T01:23:34.218Z,92612.22
2022-11-12T01:26:14.163Z,92609.38
2022-11-12T01:28:40.526Z,92598.69
2022-11-12T01:31:30.095Z,92603.16
2022-11-12T01:33:57.125Z,92605.69
2022-11-12T01:36:23.473Z,92601.63
2022-11-12T01:38:49.795Z,92600.00
2022-11-12T01:41:18.412Z,92601.22
2022-11-12T01:43:44.693Z,92600.81
2022-11-12T01:46:17.103Z,92598.38
2022-11-12T01:48:53.606Z,92601.63
2022-11-12T01:51:20.591Z,92592.56
2022-11-12T01:53:47.317Z,92594.09
2022-11-12T01:56:13.802Z,92592.84
2022-11-12T01:58:40.099Z,92590.41
2022-11-12T02:01:06.471Z,92585.63
2022-11-12T02:03:32.793Z,92592.06
2022-11-12T02:06:02.998Z,92581.25
2022-11-12T02:08:29.355Z,92586.44
2022-11-12T02:10:55.621Z,92586.88
2022-11-12T02:13:40.353Z,92589.53
2022-11-12T02:16:06.720Z,92595.81
2022-11-12T02:18:33.000Z,92590.84
2022-11-12T02:21:00.409Z,92587.47
2022-11-12T02:23:26.685Z,92592.25
2022-11-12T02:25:52.974Z,92584.63
2022-11-12T02:28:19.287Z,92592.69
2022-11-12T02:30:46.620Z,92595.09
2022-11-12T02:33:12.952Z,92595.94
2022-11-12T02:35:39.256Z,92589.19
2022-11-12T02:38:05.692Z,92586.44
2022-11-12T02:40:31.969Z,92588.06
2022-11-12T02:42:58.857Z,92589.31
2022-11-12T02:45:25.186Z,92591.78
2022-11-12T02:47:51.464Z,92589.31
2022-11-12T02:50:17.933Z,92584.34
2022-11-12T02:52:44.275Z,92580.84
2022-11-12T02:55:10.999Z,92582.69
2022-11-12T02:57:37.369Z,92578.81
2022-11-12T03:00:06.601Z,92577.91
2022-11-12T03:02:32.861Z,92568.44
2022-11-12T03:04:59.248Z,92567.00
2022-11-12T03:07:25.518Z,92565.69
2022-11-12T03:09:51.780Z,92565.28
2022-11-12T03:12:18.053Z,92559.56
2022-11-12T03:14:44.344Z,92555.88
2022-11-12T03:17:10.616Z,92564.38
2022-11-12T03:19:36.967Z,92564.88
2022-11-12T03:22:03.234Z,92563.97
2022-11-12T03:24:29.488Z,92564.78
2022-11-12T03:26:55.768Z,92563.56
2022-11-12T03:29:22.031Z,92566.09
2022-11-12T03:31:48.309Z,92564.88
2022-11-12T03:34:14.601Z,92561.72
2022-11-12T03:36:40.864Z,92559.69
2022-11-12T03:39:07.176Z,92568.63
2022-11-12T03:41:33.544Z,92556.72
2022-11-12T03:43:59.818Z,92569.75
2022-11-12T03:46:26.092Z,92573.81
2022-11-12T03:48:53.147Z,92569.44
2022-11-12T03:51:21.128Z,92557.63
2022-11-12T03:53:49.215Z,92569.03
2022-11-12T03:56:15.499Z,92566.28
2022-11-12T03:58:41.782Z,92570.78
2022-11-12T04:01:08.095Z,92569.44
2022-11-12T04:03:34.499Z,92567.91
2022-11-12T04:06:36.197Z,92571.28
2022-11-12T04:09:02.813Z,92573.75
2022-11-12T04:11:29.080Z,92567.63
2022-11-12T04:13:55.339Z,92567.13
2022-11-12T04:16:40.432Z,92566.19
2022-11-12T04:19:25.677Z,92555.50
2022-11-12T04:21:55.769Z,92550.94
2022-11-12T04:24:44.888Z,92550.94
2022-11-12T04:27:13.363Z,92546.97
2022-11-12T04:29:58.360Z,92545.75
2022-11-12T04:32:25.459Z,92542.09
2022-11-12T04:34:52.002Z,92545.94
2022-11-12T04:37:23.203Z,92543.19
2022-11-12T04:39:49.969Z,92541.56
2022-11-12T04:42:34.875Z,92548.88
2022-11-12T04:45:02.363Z,92532.09
2022-11-12T04:47:29.312Z,92535.97
2022-11-12T04:49:55.670Z,92541.34
2022-11-12T04:52:21.943Z,92537.09
2022-11-12T04:54:48.256Z,92543.09
2022-11-12T04:57:14.554Z,92531.56
2022-11-12T04:59:40.834Z,92530.34
2022-11-12T05:02:07.088Z,92525.88
2022-11-12T05:04:33.373Z,92540.75
2022-11-12T05:06:59.765Z,92529.34
2022-11-12T05:09:26.841Z,92526.50
2022-11-12T05:11:53.392Z,92530.97
2022-11-12T05:14:19.683Z,92527.75
2022-11-12T05:16:46.037Z,92531.28
2022-11-12T05:19:12.339Z,92530.88
2022-11-12T05:21:57.066Z,92526.88
2022-11-12T05:24:40.922Z,92534.22
2022-11-12T05:27:15.971Z,92521.50
2022-11-12T05:29:42.419Z,92523.34
2022-11-12T05:32:09.100Z,92532.59
2022-11-12T05:34:35.382Z,92523.84
2022-11-12T05:37:02.004Z,92535.03
2022-11-12T05:39:28.269Z,92530.25
2022-11-12T05:42:11.732Z,92527.38
2022-11-12T05:44:38.544Z,92518.56
2022-11-12T05:47:04.809Z,92521.50
2022-11-12T05:49:31.086Z,92523.63
2022-11-12T05:51:57.339Z,92524.44
2022-11-12T05:54:24.874Z,92522.06
2022-11-12T05:56:51.654Z,92519.88
2022-11-12T05:59:17.924Z,92520.34
2022-11-12T06:01:44.212Z,92522.69
2022-11-12T06:04:13.917Z,92518.75
2022-11-12T06:06:42.810Z,92526.88
2022-11-12T06:09:09.191Z,92529.28
2022-11-12T06:11:35.512Z,92522.19
2022-11-12T06:14:01.924Z,92517.81
2022-11-12T06:16:28.198Z,92517.47
2022-11-12T06:18:54.477Z,92512.81
2022-11-12T06:21:22.486Z,92516.09
2022-11-12T06:23:49.964Z,92519.03
2022-11-12T06:26:16.251Z,92522.97
2022-11-12T06:28:42.559Z,92527.97
2022-11-12T06:31:08.851Z,92537.41
2022-11-12T06:33:35.135Z,92532.25
2022-11-12T06:36:06.589Z,92529.19
2022-11-12T06:38:33.631Z,92529.72
2022-11-12T06:40:59.930Z,92524.56
2022-11-12T06:43:27.168Z,92517.00
2022-11-12T06:45:53.442Z,92518.81
2022-11-12T06:48:19.699Z,92523.75
2022-11-12T06:50:45.976Z,92515.75
2022-11-12T06:53:12.262Z,92518.06
2022-11-12T06:55:38.528Z,92526.94
2022-11-12T06:58:04.897Z,92527.53
2022-11-12T07:00:31.281Z,92523.25
2022-11-12T07:02:57.614Z,92517.81
2022-11-12T07:05:24.028Z,92521.66
2022-11-12T07:07:50.294Z,92527.88
2022-11-12T07:10:16.573Z,92531.06
2022-11-12T07:12:42.857Z,92522.63
2022-11-12T07:15:09.293Z,92527.94
2022-11-12T07:17:35.589Z,92527.22
2022-11-12T07:20:03.928Z,92530.09
2022-11-12T07:22:30.537Z,92520.44
2022-11-12T07:24:56.798Z,92523.50
2022-11-12T07:27:23.100Z,92526.31
2022-11-12T07:29:49.366Z,92523.88
2022-11-12T07:32:15.634Z,92527.16
2022-11-12T07:34:41.922Z,92530.06
2022-11-12T07:37:08.189Z,92527.47
2022-11-12T07:39:34.485Z,92520.63
2022-11-12T07:42:00.762Z,92526.41
2022-11-12T07:44:27.050Z,92524.50
2022-11-12T07:46:53.422Z,92516.97
2022-11-12T07:49:19.702Z,92526.63
2022-11-12T07:51:45.956Z,92523.09
2022-11-12T07:54:13.127Z,92526.84
2022-11-12T07:56:39.420Z,92525.63
2022-11-12T07:59:07.402Z,92523.84
2022-11-12T08:01:37.357Z,92520.31
2022-11-12T08:04:04.487Z,92513.63
2022-11-12T08:06:30.821Z,92527.47
2022-11-12T08:08:57.376Z,92531.50
2022-11-12T08:11:23.691Z,92531.41
2022-11-12T08:13:50.014Z,92531.03
2022-11-12T08:16:16.319Z,92537.88
2022-11-12T08:18:43.042Z,92539.31
2022-11-12T08:21:10.623Z,92538.59
2022-11-12T08:23:36.901Z,92528.69
2022-11-12T08:26:04.079Z,92536.72
2022-11-12T08:28:30.708Z,92536.81
2022-11-12T08:30:57.003Z,92537.03
2022-11-12T08:33:23.357Z,92549.81
2022-11-12T08:35:49.973Z,92539.00
2022-11-12T08:38:17.758Z,92529.78
2022-11-12T08:40:44.031Z,92540.41
2022-11-12T08:43:10.452Z,92536.91
2022-11-12T08:45:37.216Z,92531.44
2022-11-12T08:48:04.238Z,92538.38
2022-11-12T08:50:30.563Z,92543.34
2022-11-12T08:53:01.055Z,92540.38
2022-11-12T08:55:27.639Z,92529.38
2022-11-12T08:57:53.929Z,92530.66
2022-11-12T09:00:20.321Z,92533.63
2022-11-12T09:02:46.600Z,92531.22
2022-11-12T09:05:12.889Z,92530.88
2022-11-12T09:07:54.661Z,92527.34
2022-11-12T09:10:20.972Z,92531.47
2022-11-12T09:12:50.343Z,92522.25
2022-11-12T09:18:03.874Z,92526.56
2022-11-12T09:20:30.167Z,92521.97
2022-11-12T09:23:00.186Z,92527.81
2022-11-12T09:25:26.473Z,92530.84
2022-11-12T09:27:52.931Z,92530.47
2022-11-12T09:30:19.192Z,92523.22
2022-11-12T09:32:45.459Z,92525.72
2022-11-12T09:35:11.751Z,92518.81
2022-11-12T09:37:38.206Z,92516.84
2022-11-12T09:40:07.567Z,92520.59
2022-11-12T09:42:34.041Z,92514.56
2022-11-12T09:45:01.652Z,92512.81
2022-11-12T09:47:35.102Z,92515.50
2022-11-12T09:50:20.212Z,92500.78
2022-11-12T09:52:46.788Z,92507.81
2022-11-12T09:55:12.990Z,92501.13
2022-11-12T09:57:39.358Z,92497.06
2022-11-12T10:00:32.297Z,92497.03
2022-11-12T10:03:03.497Z,92497.94
2022-11-12T10:05:48.992Z,92491.19
2022-11-12T10:08:17.957Z,92489.25
2022-11-12T10:10:45.790Z,92484.28
2022-11-12T10:13:15.051Z,92475.41
2022-11-12T10:16:12.388Z,92474.84
2022-11-12T10:18:41.420Z,92477.00
2022-11-12T10:21:14.697Z,92467.75
2022-11-12T10:23:41.722Z,92455.53
2022-11-12T10:26:12.450Z,92459.44
2022-11-12T10:28:48.551Z,92448.06
2022-11-12T10:31:15.808Z,92448.75
2022-11-12T10:33:42.077Z,92448.88
2022-11-12T10:36:24.911Z,92443.41
2022-11-12T10:38:52.314Z,92435.16
2022-11-12T10:41:22.805Z,92429.25
2022-11-12T10:43:58.965Z,92427.75
2022-11-12T10:46:26.640Z,92432.00
2022-11-12T10:48:53.958Z,92424.66
2022-11-12T10:51:23.855Z,92423.25
2022-11-12T10:53:50.139Z,92419.75
2022-11-12T10:56:23.798Z,92414.06
2022-11-12T10:59:08.883Z,92408.59
2022-11-12T11:01:36.270Z,92413.00
2022-11-12T11:04:03.699Z,92413.59
2022-11-12T11:06:29.981Z,92402.72
2022-11-12T11:09:14.152Z,92392.19
2022-11-12T11:11:50.512Z,92394.50
2022-11-12T11:14:22.766Z,92392.81
2022-11-12T11:16:52.834Z,92387.50
2022-11-12T11:19:19.169Z,92388.44
2022-11-12T11:21:48.437Z,92390.59
2022-11-12T11:24:18.120Z,92398.72
2022-11-12T11:26:58.762Z,92384.22
2022-11-12T11:29:43.642Z,92384.31
2022-11-12T11:32:09.858Z,92386.84
2022-11-12T11:34:55.024Z,92382.75
2022-11-12T11:37:27.954Z,92377.78
2022-11-12T11:40:18.966Z,92371.78
2022-11-12T11:43:00.550Z,92370.94
2022-11-12T11:45:29.841Z,92370.41
2022-11-12T11:48:08.313Z,92366.50
2022-11-12T11:50:35.667Z,92366.81
2022-11-12T11:53:06.745Z,92365.03
2022-11-12T11:55:38.292Z,92355.78
2022-11-12T11:58:39.925Z,92348.22
2022-11-12T12:01:21.132Z,92345.88
2022-11-12T12:03:59.291Z,92347.13
2022-11-12T12:06:29.054Z,92339.91
2022-11-12T12:08:59.467Z,92344.16
2022-11-12T12:11:30.443Z,92341.81
2022-11-12T12:14:06.350Z,92336.00
2022-11-12T12:16:35.663Z,92341.63
2022-11-12T12:19:05.548Z,92332.34
2022-11-12T12:21:32.333Z,92329.31
2022-11-12T12:24:01.028Z,92332.25
2022-11-12T12:26:29.322Z,92319.56
2022-11-12T12:28:58.548Z,92324.19
2022-11-12T12:31:26.209Z,92330.88
2022-11-12T12:33:53.172Z,92322.88
2022-11-12T12:36:32.185Z,92332.31
2022-11-12T12:39:09.913Z,92319.44
2022-11-12T12:41:39.457Z,92312.44
2022-11-12T12:44:09.436Z,92305.31
2022-11-12T12:46:49.375Z,92300.03
2022-11-12T12:49:16.767Z,92301.47
2022-11-12T12:51:43.053Z,92311.91
2022-11-12T12:54:28.159Z,92305.94
2022-11-12T12:56:54.443Z,92301.00
2022-11-12T12:59:21.762Z,92294.63
2022-11-12T13:02:03.421Z,92294.03
2022-11-12T13:04:48.457Z,92289.59
2022-11-12T13:07:14.797Z,92284.16
2022-11-12T13:09:41.164Z,92290.84
2022-11-12T13:12:08.784Z,92286.66
2022-11-12T13:14:35.034Z,92288.41
2022-11-12T13:17:01.875Z,92286.00
2022-11-12T13:19:28.703Z,92282.59
2022-11-12T13:22:13.813Z,92283.63
2022-11-12T13:24:58.904Z,92278.13
2022-11-12T13:27:40.786Z,92280.69
2022-11-12T13:30:07.667Z,92281.66
2022-11-12T13:32:37.702Z,92283.13
2022-11-12T13:35:22.285Z,92281.34
2022-11-12T13:37:49.887Z,92279.69
2022-11-12T13:40:17.621Z,92278.81
2022-11-12T13:42:49.986Z,92278.66
2022-11-12T13:45:20.319Z,92279.28
2022-11-12T13:47:46.606Z,92281.72
2022-11-12T13:50:19.757Z,92272.28
2022-11-12T13:52:46.056Z,92274.09
2022-11-12T13:55:13.347Z,92279.34
2022-11-12T13:57:39.618Z,92275.00
2022-11-12T14:00:18.182Z,92270.47
2022-11-12T14:02:44.791Z,92272.34
2022-11-12T14:05:17.890Z,92268.03
2022-11-12T14:08:03.014Z,92267.56
2022-11-12T14:10:48.115Z,92265.81
2022-11-12T14:13:34.584Z,92259.72
2022-11-12T14:16:23.925Z,92255.84
2022-11-12T14:19:13.346Z,92257.59
2022-11-12T14:21:39.621Z,92260.97
2022-11-12T14:24:06.034Z,92261.06
2022-11-12T14:26:33.282Z,92263.53
2022-11-12T14:28:59.587Z,92260.84
2022-11-12T14:31:25.929Z,92257.34
2022-11-12T14:33:52.202Z,92252.72
2022-11-12T14:36:19.068Z,92251.28
2022-11-12T14:38:50.387Z,92246.63
2022-11-12T14:41:18.495Z,92248.22
2022-11-12T14:43:47.681Z,92248.31
2022-11-12T14:46:23.184Z,92254.66
2022-11-12T14:48:54.648Z,92243.78
2022-11-12T14:51:20.950Z,92246.53
2022-11-12T14:53:48.547Z,92241.75
2022-11-12T14:56:22.208Z,92240.72
2022-11-12T14:58:48.483Z,92241.63
2022-11-12T15:02:21.683Z,92237.34
2022-11-12T15:04:32.317Z,92236.69
2022-11-12T15:06:58.620Z,92222.53
2022-11-12T15:09:31.960Z,92225.31
2022-11-12T15:11:58.275Z,92215.78
2022-11-12T15:14:24.762Z,92222.00
2022-11-12T15:16:51.022Z,92227.44
2022-11-12T15:19:18.562Z,92223.88
2022-11-12T15:21:45.534Z,92215.16
2022-11-12T15:24:11.756Z,92218.88
2022-11-12T15:26:41.994Z,92207.00
2022-11-12T15:29:11.261Z,92207.81
2022-11-12T15:31:44.250Z,92198.16
2022-11-12T15:34:25.890Z,92197.56
2022-11-12T15:36:52.164Z,92203.16
2022-11-12T15:39:18.432Z,92193.72
2022-11-12T15:41:44.704Z,92199.13
2022-11-12T15:44:10.999Z,92190.22
2022-11-12T15:46:37.435Z,92183.59
2022-11-12T15:49:09.977Z,92178.16
2022-11-12T15:51:36.350Z,92190.53
2022-11-12T15:54:02.631Z,92180.09
2022-11-12T15:56:28.892Z,92178.06
2022-11-12T15:58:55.203Z,92170.16
2022-11-12T16:01:21.500Z,92182.78
2022-11-12T16:03:47.808Z,92181.78
2022-11-12T16:06:14.084Z,92187.50
2022-11-12T16:08:40.379Z,92178.63
2022-11-12T16:11:26.612Z,92184.19
2022-11-12T16:13:52.880Z,92178.66
2022-11-12T16:16:19.149Z,92174.41
2022-11-12T16:18:45.400Z,92169.84
2022-11-12T16:21:12.866Z,92172.00
2022-11-12T16:23:41.833Z,92172.00
2022-11-12T16:26:08.253Z,92162.34
2022-11-12T16:28:34.805Z,92167.69
2022-11-12T16:31:01.093Z,92159.94
2022-11-12T16:33:27.697Z,92165.56
2022-11-12T16:35:54.213Z,92168.94
2022-11-12T16:38:21.350Z,92157.91
2022-11-12T16:40:47.617Z,92172.13
2022-11-12T16:43:13.905Z,92158.69
2022-11-12T16:45:40.890Z,92163.16
2022-11-12T16:48:11.128Z,92165.38
2022-11-12T16:50:37.390Z,92168.84
2022-11-12T16:53:03.661Z,92167.91
2022-11-12T16:55:29.945Z,92162.03
2022-11-12T16:57:56.213Z,92164.28
2022-11-12T17:00:22.515Z,92174.63
2022-11-12T17:02:53.198Z,92180.44
2022-11-12T17:05:20.622Z,92172.66
2022-11-12T17:07:47.061Z,92168.59
2022-11-12T17:10:13.335Z,92167.84
2022-11-12T17:12:39.641Z,92173.56
2022-11-12T17:15:06.325Z,92159.22
2022-11-12T17:17:32.642Z,92174.81
2022-11-12T17:19:59.071Z,92176.25
2022-11-12T17:22:25.332Z,92175.44
2022-11-12T17:24:51.601Z,92173.03
2022-11-12T17:27:17.895Z,92171.69
2022-11-12T17:29:44.270Z,92159.84
2022-11-12T17:32:10.540Z,92157.16
2022-11-12T17:34:36.809Z,92147.19
2022-11-12T17:37:03.084Z,92148.19
2022-11-12T17:39:29.411Z,92154.03
2022-11-12T17:41:55.987Z,92148.44
2022-11-12T17:44:22.251Z,92149.31
2022-11-12T17:46:48.751Z,92143.41
2022-11-12T17:49:15.126Z,92140.25
2022-11-12T17:51:41.404Z,92139.72
2022-11-12T17:54:08.453Z,92138.09
2022-11-12T17:56:37.056Z,92141.47
2022-11-12T17:59:03.562Z,92140.75
2022-11-12T18:01:30.615Z,92146.97
2022-11-12T18:03:57.194Z,92146.44
2022-11-12T18:06:24.257Z,92150.53
2022-11-12T18:09:17.008Z,92143.78
2022-11-12T18:11:44.372Z,92133.56
2022-11-12T18:14:10.693Z,92134.09
2022-11-12T18:16:36.960Z,92125.72
2022-11-12T18:19:03.251Z,92127.50
2022-11-12T18:21:29.525Z,92126.44
2022-11-12T18:23:55.846Z,92127.16
2022-11-12T18:26:22.111Z,92117.44
2022-11-12T18:28:51.390Z,92107.03
2022-11-12T18:31:17.796Z,92115.53
2022-11-12T18:33:44.084Z,92107.00
2022-11-12T18:36:11.159Z,92097.09
2022-11-12T18:38:37.448Z,92111.22
2022-11-12T18:41:07.529Z,92096.00
2022-11-12T18:43:33.822Z,92088.41
2022-11-12T18:46:00.329Z,92084.50
2022-11-12T18:53:39.418Z,92089.47
2022-11-12T18:56:10.616Z,92104.88
2022-11-12T18:58:36.912Z,92100.56
2022-11-12T19:01:10.656Z,92100.53
2022-11-12T19:03:37.076Z,92106.84
2022-11-12T19:06:04.285Z,92102.44
2022-11-12T19:08:30.611Z,92104.56
2022-11-12T19:11:00.246Z,92108.19
2022-11-12T19:13:26.962Z,92106.56
2022-11-12T19:15:53.538Z,92099.81
2022-11-12T19:18:19.837Z,92096.97
2022-11-12T19:20:46.623Z,92098.22
2022-11-12T19:23:12.893Z,92086.72
2022-11-12T19:25:39.168Z,92096.47
2022-11-12T19:28:05.432Z,92083.56
2022-11-12T19:30:31.704Z,92079.31
2022-11-12T19:32:58.194Z,92075.97
2022-11-12T19:35:24.454Z,92072.06
2022-11-12T19:37:50.718Z,92067.63
2022-11-12T19:40:17.213Z,92066.53
2022-11-12T19:42:43.478Z,92074.13
2022-11-12T19:45:09.775Z,92080.72
2022-11-12T19:47:36.261Z,92079.81
2022-11-12T19:50:02.530Z,92078.38
2022-11-12T19:52:28.822Z,92075.38
2022-11-12T19:54:55.164Z,92062.47
2022-11-12T19:57:22.898Z,92069.78
2022-11-12T19:59:49.196Z,92066.41
2022-11-12T20:02:16.404Z,92065.00
2022-11-12T20:04:42.667Z,92061.81
2022-11-12T20:07:09.152Z,92069.41
2022-11-12T20:09:35.487Z,92075.06
2022-11-12T20:12:01.758Z,92072.59
2022-11-12T20:14:29.708Z,92074.72
2022-11-12T20:16:55.969Z,92056.81
2022-11-12T20:19:22.240Z,92070.22
2022-11-12T20:21:48.524Z,92071.66
2022-11-12T20:24:14.799Z,92066.72
2022-11-12T20:26:41.096Z,92069.19
2022-11-12T20:29:07.779Z,92053.56
2022-11-12T20:31:34.113Z,92048.13
2022-11-12T20:34:01.358Z,92045.09
2022-11-12T20:36:27.764Z,92050.09
2022-11-12T20:38:54.083Z,92038.66
2022-11-12T20:41:21.069Z,92029.75
2022-11-12T20:43:47.469Z,92033.84
2022-11-12T20:46:13.754Z,92031.78
2022-11-12T20:48:43.224Z,92028.03
2022-11-12T20:51:26.352Z,92021.31
2022-11-12T20:53:58.791Z,92019.03
2022-11-12T20:56:26.784Z,92013.38
2022-11-12T20:58:53.053Z,92022.34
2022-11-12T21:01:20.969Z,92019.47
2022-11-12T21:03:47.504Z,92021.06
2022-11-12T21:06:15.014Z,92016.59
2022-11-12T21:08:41.321Z,92027.41
2022-11-12T21:11:08.738Z,92022.47
2022-11-12T21:13:35.409Z,92020.53
2022-11-12T21:16:01.940Z,92021.41
2022-11-12T21:18:29.151Z,92026.56
2022-11-12T21:20:59.760Z,92018.97
2022-11-12T21:23:27.906Z,92024.94
2022-11-12T21:25:54.178Z,92026.16
2022-11-12T21:28:20.453Z,92017.97
2022-11-12T21:30:46.729Z,92019.53
2022-11-12T21:33:12.998Z,92020.22
2022-11-12T21:35:39.279Z,92020.72
2022-11-12T21:38:05.534Z,92011.69
2022-11-12T21:40:31.806Z,92009.63
2022-11-12T21:42:59.682Z,92008.72
2022-11-12T21:45:25.945Z,92008.38
2022-11-12T21:47:53.064Z,92007.28
2022-11-12T21:50:19.344Z,92004.50
2022-11-12T21:52:45.738Z,92004.38
2022-11-12T21:55:12.081Z,91999.75
2022-11-12T21:57:38.357Z,91996.38
2022-11-12T22:00:34.683Z,91996.16
2022-11-12T22:02:54.065Z,91988.06
2022-11-12T22:05:20.419Z,91989.84
2022-11-12T22:07:46.699Z,91992.91
2022-11-12T22:10:12.958Z,92001.50
2022-11-12T22:12:39.239Z,91992.25
2022-11-12T22:15:05.765Z,91984.22
2022-11-12T22:17:32.965Z,91987.81
2022-11-12T22:19:59.262Z,91990.69
2022-11-12T22:22:25.550Z,91982.16
2022-11-12T22:24:51.838Z,91977.22
2022-11-12T22:27:18.107Z,91982.72
2022-11-12T22:29:44.393Z,91985.72
2022-11-12T22:32:10.660Z,91975.09
2022-11-12T22:34:36.937Z,91976.84
2022-11-12T22:37:03.201Z,91969.06
2022-11-12T22:39:29.479Z,91972.97
2022-11-12T22:41:55.750Z,91968.38
2022-11-12T22:44:22.034Z,91959.69
2022-11-12T22:46:48.305Z,91957.03
2022-11-12T22:49:14.616Z,91953.19
2022-11-12T22:51:40.883Z,91958.19
2022-11-12T22:54:09.245Z,91953.44
2022-11-12T22:56:35.563Z,91948.31
2022-11-12T22:59:03.437Z,91944.97
2022-11-12T23:01:30.769Z,91937.91
2022-11-12T23:03:58.065Z,91933.47
2022-11-12T23:06:24.375Z,91932.06
2022-11-12T23:08:50.685Z,91925.53
2022-11-12T23:11:17.376Z,91916.16
2022-11-12T23:13:43.869Z,91915.63
2022-11-12T23:16:11.135Z,91918.47
2022-11-12T23:18:37.418Z,91921.25
2022-11-12T23:21:07.646Z,91912.25
2022-11-12T23:23:33.927Z,91915.09
2022-11-12T23:26:04.343Z,91910.66
2022-11-12T23:28:30.779Z,91912.41
2022-11-12T23:30:57.250Z,91908.56
2022-11-12T23:33:23.539Z,91912.97
2022-11-12T23:35:49.825Z,91905.91
2022-11-12T23:38:16.113Z,91905.91
2022-11-12T23:40:42.381Z,91904.16
2022-11-12T23:43:08.660Z,91902.78
2022-11-12T23:45:40.658Z,91891.63
2022-11-12T23:48:07.010Z,91887.41
2022-11-12T23:50:33.278Z,91896.59
2022-11-12T23:52:59.547Z,91888.25
2022-11-12T23:55:29.063Z,91884.00
2022-11-12T23:57:55.659Z,91890.06
